Time;durP1;ratioP1;P1;durP2;ratioP2;P2;SDS_P1;SDS_P2;PMS_P1;PMS_P2;Temp;Humidity;BMP_temperature;BMP_pressure;BME280_temperature;BME280_humidity;BME280_pressure;Samples;Min_cycle;Max_cycle;Signal;HPM_P1;HPM_P2
2023/03/10 00:01:47;;;;;;;6.50;2.77;;;12.30;72.00;;;;;;5081327;28;20472;-64
2023/03/10 00:04:27;;;;;;;10.10;2.30;;;12.30;72.20;;;;;;5083986;28;20459;-65
2023/03/10 00:07:02;;;;;;;6.90;2.33;;;12.40;72.00;;;;;;5082005;28;20473;-64
2023/03/10 00:09:34;;;;;;;5.37;1.70;;;12.40;72.00;;;;;;5082540;28;20457;-65
2023/03/10 00:12:26;;;;;;;5.73;2.10;;;12.40;72.00;;;;;;5082608;28;20555;-64
2023/03/10 00:14:59;;;;;;;6.00;1.90;;;12.40;72.10;;;;;;5081825;28;20471;-64
2023/03/10 00:17:30;;;;;;;4.97;1.70;;;12.40;72.20;;;;;;5083393;28;21079;-65
2023/03/10 00:20:06;;;;;;;5.30;2.10;;;12.30;72.50;;;;;;5081800;28;20458;-63
2023/03/10 00:22:43;;;;;;;5.20;1.57;;;12.30;72.50;;;;;;5086383;28;20464;-65
2023/03/10 00:25:25;;;;;;;7.07;1.80;;;12.30;72.50;;;;;;5087933;28;20463;-65
2023/03/10 00:28:03;;;;;;;5.73;1.80;;;12.40;72.50;;;;;;5087271;28;20945;-65
2023/03/10 00:30:35;;;;;;;4.43;1.80;;;12.20;72.70;;;;;;5086146;28;20483;-64
2023/03/10 00:33:13;;;;;;;7.17;1.87;;;12.30;72.80;;;;;;5088733;28;20483;-65
2023/03/10 00:35:50;;;;;;;7.43;1.80;;;12.30;72.80;;;;;;5071140;28;21427;-65
2023/03/10 00:38:28;;;;;;;6.60;1.87;;;12.30;72.90;;;;;;5088174;28;20554;-65
2023/03/10 00:41:05;;;;;;;5.07;1.90;;;12.30;73.00;;;;;;5088425;28;20482;-65
2023/03/10 00:43:39;;;;;;;4.83;1.60;;;12.30;73.10;;;;;;5074114;28;20463;-64
2023/03/10 00:46:12;;;;;;;9.50;1.83;;;12.20;73.40;;;;;;5089717;28;20467;-64
2023/03/10 00:48:46;;;;;;;5.33;1.73;;;12.20;73.30;;;;;;5083611;28;20562;-64
2023/03/10 00:51:14;;;;;;;8.37;1.73;;;12.10;73.50;;;;;;5074486;28;20516;-64
2023/03/10 00:53:53;;;;;;;4.10;1.40;;;12.20;73.60;;;;;;5086528;28;20481;-64
2023/03/10 00:56:25;;;;;;;5.47;1.40;;;12.10;73.70;;;;;;5088230;28;21132;-64
2023/03/10 00:59:01;;;;;;;5.67;1.57;;;12.10;73.80;;;;;;5090131;28;20562;-64
2023/03/10 01:01:31;;;;;;;3.40;1.10;;;12.20;73.80;;;;;;5075158;28;20520;-64
2023/03/10 01:04:07;;;;;;;9.80;1.60;;;12.20;73.90;;;;;;5069235;28;20468;-66
2023/03/10 01:06:46;;;;;;;3.83;1.43;;;12.10;74.00;;;;;;5066311;28;20476;-64
2023/03/10 01:09:17;;;;;;;5.20;1.50;;;12.10;74.20;;;;;;5069755;28;20801;-64
2023/03/10 01:11:46;;;;;;;5.30;1.63;;;12.10;74.30;;;;;;5070383;28;20484;-63
2023/03/10 01:14:24;;;;;;;4.83;1.00;;;12.10;74.50;;;;;;5068478;28;20839;-64
2023/03/10 01:16:54;;;;;;;4.90;1.27;;;12.10;74.60;;;;;;5070192;28;20455;-64
2023/03/10 01:19:35;;;;;;;4.23;1.37;;;12.10;74.50;;;;;;5069414;28;20480;-64
2023/03/10 01:22:12;;;;;;;3.70;1.20;;;12.00;74.70;;;;;;5065649;28;20794;-64
2023/03/10 01:24:48;;;;;;;5.30;1.30;;;12.00;74.80;;;;;;5061842;28;20462;-64
2023/03/10 01:27:22;;;;;;;4.97;1.27;;;12.00;75.10;;;;;;5062871;28;20791;-63
2023/03/10 01:29:56;;;;;;;3.77;1.00;;;12.10;75.00;;;;;;5070403;28;20473;-64
2023/03/10 01:32:26;;;;;;;4.00;1.27;;;12.00;75.10;;;;;;5081933;28;20558;-63
2023/03/10 01:35:07;;;;;;;4.03;1.30;;;12.00;75.20;;;;;;5061839;28;20466;-63
2023/03/10 01:37:41;;;;;;;3.10;1.00;;;12.10;75.30;;;;;;5087048;28;20465;-64
2023/03/10 01:40:17;;;;;;;9.03;1.63;;;12.00;75.40;;;;;;5086449;28;20468;-65
2023/03/10 01:42:52;;;;;;;5.23;0.90;;;12.00;75.50;;;;;;5085795;28;20541;-64
2023/03/10 01:46:10;;;;;;;2.93;0.90;;;12.00;75.60;;;;;;5084080;28;20477;-63
2023/03/10 01:48:44;;;;;;;4.17;0.80;;;12.00;75.60;;;;;;4992017;28;20472;-64
2023/03/10 01:51:14;;;;;;;3.77;0.97;;;12.00;75.70;;;;;;5078965;28;20811;-64
2023/03/10 01:53:46;;;;;;;3.20;0.90;;;12.00;75.60;;;;;;5069382;28;20440;-63
2023/03/10 01:56:23;;;;;;;3.30;0.90;;;12.10;75.70;;;;;;5084659;28;20459;-64
2023/03/10 01:59:02;;;;;;;3.30;0.97;;;12.00;75.70;;;;;;5085198;28;20545;-64
2023/03/10 02:01:38;;;;;;;3.50;1.10;;;12.00;75.90;;;;;;5083921;28;20494;-64
2023/03/10 02:04:19;;;;;;;3.70;1.20;;;12.00;76.00;;;;;;5069920;28;20458;-64
2023/03/10 02:06:53;;;;;;;2.97;0.80;;;12.00;76.10;;;;;;5081609;28;21271;-64
2023/03/10 02:09:26;;;;;;;3.57;1.10;;;12.00;76.10;;;;;;5085174;28;20460;-65
2023/03/10 02:12:04;;;;;;;4.20;1.37;;;11.90;76.30;;;;;;5084130;28;20458;-64
2023/03/10 02:14:52;;;;;;;5.87;1.13;;;12.00;76.40;;;;;;5085550;28;20555;-64
2023/03/10 02:17:26;;;;;;;4.30;0.90;;;12.00;76.20;;;;;;5085448;28;21116;-63
2023/03/10 02:20:24;;;;;;;3.67;0.93;;;12.00;76.30;;;;;;5084165;28;20961;-64
2023/03/10 02:22:57;;;;;;;4.03;0.90;;;12.00;76.30;;;;;;5064245;28;20560;-64
2023/03/10 02:25:43;;;;;;;4.57;1.17;;;12.00;76.50;;;;;;5082232;28;20465;-64
2023/03/10 02:28:31;;;;;;;3.40;0.80;;;11.90;76.50;;;;;;5064834;28;20455;-64
2023/03/10 02:31:09;;;;;;;3.07;0.90;;;12.00;76.60;;;;;;5063517;28;20498;-63
2023/03/10 02:33:44;;;;;;;4.90;1.20;;;11.90;76.70;;;;;;5083201;28;20452;-65
2023/03/10 02:36:23;;;;;;;4.30;1.23;;;11.90;76.80;;;;;;5081665;28;20474;-66
2023/03/10 02:38:58;;;;;;;3.17;0.90;;;11.90;76.90;;;;;;5069331;28;20463;-65
2023/03/10 02:41:38;;;;;;;3.20;0.90;;;11.90;77.00;;;;;;5084352;28;20474;-64
2023/03/10 02:44:23;;;;;;;3.00;1.00;;;11.90;77.00;;;;;;5082099;28;20927;-66
2023/03/10 02:47:04;;;;;;;5.03;1.00;;;12.00;77.00;;;;;;5067849;28;20799;-65
2023/03/10 02:49:42;;;;;;;3.60;0.90;;;11.90;77.00;;;;;;5082100;28;20798;-65
2023/03/10 02:52:26;;;;;;;3.30;0.90;;;11.90;77.20;;;;;;5084702;28;20452;-65
2023/03/10 02:55:05;;;;;;;3.43;0.83;;;11.90;77.30;;;;;;5084440;28;20479;-65
2023/03/10 02:57:37;;;;;;;3.30;1.03;;;11.90;77.40;;;;;;5080862;28;20799;-65
2023/03/10 03:00:26;;;;;;;4.70;1.00;;;11.90;77.40;;;;;;5083009;28;20459;-66
2023/03/10 03:02:59;;;;;;;2.90;0.90;;;11.80;77.60;;;;;;5083282;28;20575;-65
2023/03/10 03:05:30;;;;;;;4.30;1.23;;;11.90;77.60;;;;;;5068594;28;21012;-62
2023/03/10 03:08:07;;;;;;;2.67;0.70;;;11.80;78.00;;;;;;5062492;28;20461;-65
2023/03/10 03:10:40;;;;;;;3.23;0.80;;;11.80;77.80;;;;;;5059557;28;20461;-65
2023/03/10 03:13:19;;;;;;;3.07;0.77;;;11.80;78.00;;;;;;5082679;28;20465;-64
2023/03/10 03:16:03;;;;;;;2.93;0.80;;;11.80;78.00;;;;;;5062269;28;20460;-65
2023/03/10 03:18:45;;;;;;;4.77;0.80;;;11.80;78.10;;;;;;5066471;28;20463;-68
2023/03/10 03:21:20;;;;;;;3.60;0.90;;;11.80;78.10;;;;;;5083821;28;20457;-65
2023/03/10 03:26:35;;;;;;;4.90;1.00;;;11.80;78.30;;;;;;5064059;28;20450;-64
2023/03/10 03:29:18;;;;;;;4.63;0.97;;;11.70;78.50;;;;;;5072628;28;20459;-65
2023/03/10 03:32:05;;;;;;;5.17;1.30;;;11.70;78.50;;;;;;5081243;28;20474;-64
2023/03/10 03:34:47;;;;;;;3.40;1.20;;;11.80;78.60;;;;;;5069119;28;21162;-65
2023/03/10 03:37:20;;;;;;;4.53;1.07;;;11.70;78.60;;;;;;5066777;28;20483;-64
2023/03/10 03:40:11;;;;;;;3.73;0.90;;;11.80;78.50;;;;;;5084446;28;20465;-64
2023/03/10 03:42:48;;;;;;;2.87;0.90;;;11.80;78.60;;;;;;5066419;28;20523;-64
2023/03/10 03:45:20;;;;;;;7.43;1.37;;;11.80;78.70;;;;;;5072464;28;20464;-64
2023/03/10 03:47:53;;;;;;;5.87;1.43;;;11.80;78.70;;;;;;5064898;28;21100;-64
2023/03/10 03:50:23;;;;;;;4.13;1.60;;;11.80;78.80;;;;;;5064550;28;20509;-64
2023/03/10 03:53:05;;;;;;;3.50;1.17;;;11.80;78.80;;;;;;5083370;28;20927;-64
2023/03/10 03:55:38;;;;;;;3.50;1.20;;;11.80;78.90;;;;;;5086260;28;20464;-64
2023/03/10 03:58:17;;;;;;;5.03;1.50;;;11.80;78.80;;;;;;5089114;28;20460;-64
2023/03/10 04:00:51;;;;;;;4.23;1.47;;;11.80;78.90;;;;;;5087797;28;20526;-65
2023/03/10 04:03:25;;;;;;;4.53;1.40;;;11.80;78.80;;;;;;5088572;28;20486;-65
2023/03/10 04:05:58;;;;;;;3.20;1.00;;;11.80;79.00;;;;;;5088506;28;20816;-65
2023/03/10 04:08:33;;;;;;;5.23;1.37;;;11.80;79.00;;;;;;5064841;28;20488;-65
2023/03/10 04:11:13;;;;;;;3.40;1.03;;;11.70;79.20;;;;;;5088176;28;20542;-65
2023/03/10 04:13:50;;;;;;;4.27;1.10;;;11.70;79.20;;;;;;5089490;28;20543;-64
2023/03/10 04:16:26;;;;;;;6.03;1.80;;;11.80;79.30;;;;;;5087971;28;20498;-64
2023/03/10 04:19:02;;;;;;;4.03;1.47;;;11.80;79.30;;;;;;5090800;28;20938;-65
2023/03/10 04:21:33;;;;;;;5.03;1.50;;;11.70;79.40;;;;;;5070963;28;20491;-64
2023/03/10 04:24:11;;;;;;;3.13;1.20;;;11.80;79.30;;;;;;5069756;28;20469;-64
2023/03/10 04:29:29;;;;;;;4.00;1.50;;;11.80;79.30;;;;;;5073457;28;20517;-64
2023/03/10 04:34:53;;;;;;;8.17;1.50;;;11.70;79.40;;;;;;5070330;28;20555;-64
2023/03/10 04:37:32;;;;;;;3.83;1.47;;;11.70;79.40;;;;;;5070898;28;20533;-65
2023/03/10 04:40:09;;;;;;;5.47;1.50;;;11.70;79.50;;;;;;5070523;28;20459;-64
2023/03/10 04:42:49;;;;;;;4.60;1.57;;;11.70;79.70;;;;;;5069791;28;20491;-64
2023/03/10 04:45:22;;;;;;;8.30;1.87;;;11.70;79.60;;;;;;5089971;28;20466;-64
2023/03/10 04:47:55;;;;;;;4.50;1.40;;;11.70;79.60;;;;;;5089058;28;20474;-65
2023/03/10 04:50:41;;;;;;;4.90;1.60;;;11.70;79.60;;;;;;5076408;28;20483;-64
2023/03/10 04:53:14;;;;;;;4.43;1.60;;;11.70;79.70;;;;;;5086414;28;20930;-64
2023/03/10 04:55:50;;;;;;;5.67;1.60;;;11.70;79.70;;;;;;5070675;28;20503;-64
2023/03/10 04:58:29;;;;;;;4.70;1.60;;;11.60;79.80;;;;;;5066616;28;20917;-64
2023/03/10 05:00:58;;;;;;;3.83;1.20;;;11.70;79.90;;;;;;5065102;28;20477;-64
2023/03/10 05:03:37;;;;;;;4.47;1.20;;;11.70;79.90;;;;;;5085200;28;20544;-65
2023/03/10 05:06:22;;;;;;;4.47;1.40;;;11.70;79.90;;;;;;5084659;28;20456;-65
2023/03/10 05:09:35;;;;;;;6.57;1.60;;;11.70;80.00;;;;;;5033038;28;20471;-64
2023/03/10 05:12:09;;;;;;;5.67;1.87;;;11.70;80.00;;;;;;5084502;28;20483;-64
2023/03/10 05:14:39;;;;;;;4.03;1.63;;;11.80;79.90;;;;;;5085504;28;21173;-64
2023/03/10 05:17:24;;;;;;;7.10;1.80;;;11.70;79.90;;;;;;5077032;28;20497;-64
2023/03/10 05:19:56;;;;;;;6.43;1.40;;;11.70;79.90;;;;;;5069959;28;20486;-64
2023/03/10 05:22:47;;;;;;;3.33;1.13;;;11.60;80.00;;;;;;5081478;28;20490;-64
2023/03/10 05:33:42;;;;;;;5.23;1.23;;;11.60;80.00;;;;;;5086845;28;20492;-64
2023/03/10 05:36:14;;;;;;;3.87;1.30;;;11.60;80.10;;;;;;5083180;28;20474;-64
2023/03/10 05:39:04;;;;;;;5.70;1.60;;;11.50;80.20;;;;;;5086153;28;20944;-64
2023/03/10 05:41:45;;;;;;;3.47;1.30;;;11.50;80.30;;;;;;5084083;28;20459;-64
2023/03/10 05:44:18;;;;;;;3.70;1.13;;;11.50;80.20;;;;;;5084722;28;20480;-64
2023/03/10 05:46:52;;;;;;;4.73;1.30;;;11.40;80.50;;;;;;5065323;28;20464;-64
2023/03/10 05:49:26;;;;;;;4.07;1.60;;;11.40;80.50;;;;;;5085837;28;20471;-64
2023/03/10 05:52:05;;;;;;;5.57;1.40;;;11.40;80.50;;;;;;5082991;28;20484;-65
2023/03/10 05:54:41;;;;;;;4.20;1.17;;;11.30;80.70;;;;;;5062598;28;20912;-65
2023/03/10 05:57:17;;;;;;;3.40;1.00;;;11.30;80.70;;;;;;5067125;28;20459;-65
2023/03/10 05:59:51;;;;;;;5.30;1.10;;;11.30;80.80;;;;;;5081977;28;21358;-64
2023/03/10 06:02:24;;;;;;;3.40;1.40;;;11.40;80.80;;;;;;5084947;28;20575;-64
2023/03/10 06:04:56;;;;;;;7.30;1.53;;;11.40;80.80;;;;;;5086645;28;20495;-65
2023/03/10 06:07:27;;;;;;;4.20;1.43;;;11.50;80.70;;;;;;5070214;28;20454;-64
2023/03/10 06:10:02;;;;;;;5.53;1.50;;;11.50;80.40;;;;;;5084462;28;21452;-65
2023/03/10 06:12:34;;;;;;;5.20;1.60;;;11.50;80.50;;;;;;5085457;28;20551;-64
2023/03/10 06:15:08;;;;;;;5.90;1.40;;;11.50;80.50;;;;;;5086097;28;20462;-65
2023/03/10 06:17:57;;;;;;;4.93;1.53;;;11.40;80.80;;;;;;5084839;28;20524;-64
2023/03/10 06:20:33;;;;;;;3.70;1.80;;;11.50;80.80;;;;;;5082640;28;20476;-65
2023/03/10 06:23:10;;;;;;;5.43;1.67;;;11.50;80.80;;;;;;5087857;28;20456;-64
2023/03/10 06:25:57;;;;;;;5.73;1.73;;;11.40;80.80;;;;;;5084913;28;20463;-65
2023/03/10 06:28:31;;;;;;;7.70;2.10;;;11.50;80.70;;;;;;5089740;28;20953;-65
2023/03/10 06:31:14;;;;;;;3.87;1.60;;;11.50;80.70;;;;;;5086707;28;20482;-65
2023/03/10 06:33:47;;;;;;;4.13;1.93;;;11.50;80.70;;;;;;5084098;28;20538;-65
2023/03/10 06:36:18;;;;;;;6.00;2.27;;;11.50;80.70;;;;;;5083563;28;20467;-64
2023/03/10 06:38:53;;;;;;;4.50;1.90;;;11.50;80.80;;;;;;5077832;28;20459;-64
2023/03/10 06:41:31;;;;;;;6.37;1.90;;;11.50;80.70;;;;;;5079699;28;20837;-64
2023/03/10 06:44:05;;;;;;;5.93;2.07;;;11.50;80.90;;;;;;5083040;28;20501;-64
2023/03/10 06:46:43;;;;;;;7.53;1.83;;;11.50;81.00;;;;;;5082183;28;20460;-64
2023/03/10 06:49:14;;;;;;;10.10;2.00;;;11.50;81.00;;;;;;5083727;28;20497;-64
2023/03/10 06:51:45;;;;;;;6.00;2.40;;;11.60;80.90;;;;;;5081934;28;20468;-64
2023/03/10 06:54:17;;;;;;;6.53;1.43;;;11.60;81.00;;;;;;5084565;28;20449;-65
2023/03/10 06:56:59;;;;;;;7.40;1.63;;;11.60;81.10;;;;;;5082967;28;20899;-64
2023/03/10 06:59:31;;;;;;;4.80;1.47;;;11.70;81.00;;;;;;5089744;28;20455;-67
2023/03/10 07:02:13;;;;;;;5.60;1.50;;;11.70;81.00;;;;;;5089602;28;20474;-66
2023/03/10 07:04:45;;;;;;;4.67;1.87;;;11.70;80.90;;;;;;5088076;28;21117;-66
2023/03/10 07:07:30;;;;;;;4.70;1.57;;;11.70;80.90;;;;;;5089438;28;20926;-66
2023/03/10 07:10:15;;;;;;;4.20;1.70;;;11.80;80.90;;;;;;5086255;28;20465;-67
2023/03/10 07:12:57;;;;;;;3.83;1.50;;;11.80;80.90;;;;;;5087636;28;20927;-66
2023/03/10 07:15:32;;;;;;;4.20;1.20;;;11.80;80.90;;;;;;5087716;28;20935;-67
2023/03/10 07:18:09;;;;;;;4.00;1.20;;;11.80;80.90;;;;;;5088077;28;20449;-67
2023/03/10 07:20:43;;;;;;;4.10;1.30;;;11.70;80.90;;;;;;5088583;28;20456;-67
2023/03/10 07:23:17;;;;;;;5.53;1.63;;;11.80;80.90;;;;;;5088470;28;20468;-67
2023/03/10 07:25:55;;;;;;;5.20;1.27;;;11.80;80.90;;;;;;5088065;28;20481;-66
2023/03/10 07:28:30;;;;;;;4.17;1.10;;;11.70;80.90;;;;;;5085697;28;20543;-66
2023/03/10 07:31:04;;;;;;;4.53;1.03;;;11.80;81.00;;;;;;5087219;28;20617;-66
2023/03/10 07:33:34;;;;;;;5.67;1.20;;;11.80;81.00;;;;;;5088126;28;20448;-66
2023/03/10 07:36:11;;;;;;;6.17;1.40;;;11.80;81.10;;;;;;5085889;28;20463;-66
2023/03/10 07:38:39;;;;;;;4.30;1.40;;;11.90;81.00;;;;;;5087760;28;20849;-66
2023/03/10 07:41:23;;;;;;;4.77;1.20;;;11.90;80.90;;;;;;5086783;28;20451;-66
2023/03/10 07:43:56;;;;;;;5.10;1.20;;;11.90;80.90;;;;;;5084170;28;20955;-67
2023/03/10 07:46:29;;;;;;;3.97;1.30;;;11.90;80.90;;;;;;5087254;28;20483;-67
2023/03/10 07:49:03;;;;;;;4.20;1.00;;;11.90;80.90;;;;;;5089059;28;20929;-66
2023/03/10 07:51:40;;;;;;;9.10;2.20;;;11.90;80.90;;;;;;5086530;28;20858;-66
2023/03/10 07:54:13;;;;;;;4.40;1.30;;;12.00;80.90;;;;;;5087291;28;20464;-67
2023/03/10 07:56:55;;;;;;;4.17;1.40;;;12.00;80.90;;;;;;5088106;28;20495;-66
2023/03/10 07:59:37;;;;;;;5.10;1.03;;;12.00;80.50;;;;;;5088418;28;20464;-66
2023/03/10 08:02:07;;;;;;;3.50;0.90;;;12.00;80.60;;;;;;5070863;28;20479;-66
2023/03/10 08:04:49;;;;;;;4.77;1.00;;;12.00;80.60;;;;;;5067405;28;20599;-66
2023/03/10 08:07:26;;;;;;;5.17;1.10;;;12.00;80.70;;;;;;5067086;28;20467;-66
2023/03/10 08:10:00;;;;;;;4.80;1.27;;;12.00;80.60;;;;;;5065804;28;20531;-66
2023/03/10 08:12:30;;;;;;;4.60;1.10;;;11.90;80.60;;;;;;5066789;28;20471;-66
2023/03/10 08:15:15;;;;;;;7.20;1.17;;;11.90;80.60;;;;;;5067440;28;20944;-66
2023/03/10 08:17:51;;;;;;;4.83;1.20;;;12.00;80.60;;;;;;5067849;28;20450;-67
2023/03/10 08:20:25;;;;;;;3.53;1.30;;;12.00;80.60;;;;;;5066649;28;20445;-66
2023/03/10 08:23:05;;;;;;;3.70;1.03;;;12.00;80.50;;;;;;5058716;28;20455;-66
2023/03/10 08:25:40;;;;;;;4.47;1.07;;;12.00;80.60;;;;;;5066472;28;20517;-66
2023/03/10 08:28:13;;;;;;;3.40;1.00;;;12.00;80.60;;;;;;5067052;28;20486;-67
2023/03/10 08:30:57;;;;;;;5.70;1.10;;;12.10;80.70;;;;;;5071576;28;20481;-66
2023/03/10 08:33:41;;;;;;;7.97;1.30;;;12.10;80.60;;;;;;5086144;28;20451;-67
2023/03/10 08:36:17;;;;;;;4.10;1.00;;;12.10;80.60;;;;;;5086675;28;20460;-67
2023/03/10 08:38:55;;;;;;;4.10;1.17;;;12.10;80.50;;;;;;5087436;28;20555;-68
2023/03/10 08:41:26;;;;;;;4.97;1.03;;;12.10;80.40;;;;;;5089120;28;20933;-66
2023/03/10 08:44:10;;;;;;;5.03;1.17;;;12.10;80.40;;;;;;5093128;28;20850;-66
2023/03/10 08:46:43;;;;;;;7.67;1.93;;;12.10;80.50;;;;;;5094235;28;20547;-66
2023/03/10 08:49:20;;;;;;;4.63;1.40;;;12.10;80.50;;;;;;5090931;28;20457;-67
2023/03/10 08:51:53;;;;;;;6.83;1.40;;;12.10;80.50;;;;;;5090992;28;21251;-66
2023/03/10 08:54:23;;;;;;;6.03;1.20;;;12.10;80.50;;;;;;5094938;28;20458;-66
2023/03/10 08:56:52;;;;;;;7.60;1.17;;;12.10;80.50;;;;;;5092395;28;20845;-66
2023/03/10 08:59:29;;;;;;;4.40;1.10;;;12.10;80.60;;;;;;5090718;28;20513;-67
2023/03/10 09:02:10;;;;;;;5.57;1.30;;;12.20;80.50;;;;;;5074141;28;20487;-67
2023/03/10 09:04:51;;;;;;;4.63;1.40;;;12.20;80.50;;;;;;5065781;28;20459;-67
2023/03/10 09:07:24;;;;;;;8.20;1.80;;;12.20;80.70;;;;;;5055007;28;20458;-67
2023/03/10 09:10:01;;;;;;;5.67;5.17;;;12.30;80.90;;;;;;5008284;28;20478;-67
2023/03/10 09:12:34;;;;;;;5.10;1.30;;;12.40;80.60;;;;;;5053960;28;20535;-68
2023/03/10 09:15:10;;;;;;;3.93;1.23;;;12.40;80.60;;;;;;5068021;28;20489;-66
2023/03/10 09:17:42;;;;;;;5.37;1.70;;;12.50;80.40;;;;;;5052157;28;20463;-67
2023/03/10 09:20:24;;;;;;;6.10;1.47;;;12.50;80.20;;;;;;5055906;28;20530;-66
2023/03/10 09:23:00;;;;;;;5.60;1.07;;;12.50;80.20;;;;;;5070889;28;20464;-66
2023/03/10 09:25:33;;;;;;;8.47;1.30;;;12.50;80.00;;;;;;5070072;28;20515;-66
2023/03/10 09:28:05;;;;;;;4.53;1.17;;;12.50;79.60;;;;;;5065071;28;20550;-67
2023/03/10 09:30:47;;;;;;;4.23;1.10;;;12.40;79.20;;;;;;5067710;28;20498;-67
2023/03/10 09:33:21;;;;;;;2.90;0.80;;;12.40;79.00;;;;;;5087336;28;20554;-67
2023/03/10 09:35:51;;;;;;;4.40;1.00;;;12.30;78.90;;;;;;5086337;28;20466;-66
2023/03/10 09:38:36;;;;;;;3.30;0.73;;;12.30;78.80;;;;;;5090900;28;20909;-67
2023/03/10 09:41:41;;;;;;;3.40;0.93;;;12.30;78.80;;;;;;5084246;28;20789;-67
2023/03/10 09:44:25;;;;;;;3.50;1.50;;;12.30;78.60;;;;;;5091813;28;20454;-68
2023/03/10 09:47:11;;;;;;;4.20;1.30;;;12.20;78.20;;;;;;5071925;28;20489;-68
2023/03/10 09:49:53;;;;;;;4.43;0.90;;;12.20;78.00;;;;;;5086643;28;20802;-67
2023/03/10 09:52:38;;;;;;;4.50;0.90;;;12.10;77.90;;;;;;5087669;28;21965;-67
2023/03/10 09:55:25;;;;;;;3.30;0.87;;;12.10;78.00;;;;;;5090516;28;20939;-65
2023/03/10 09:58:00;;;;;;;4.97;1.30;;;12.00;77.90;;;;;;5091862;28;20525;-67
2023/03/10 10:00:52;;;;;;;4.83;0.90;;;12.00;78.00;;;;;;5085833;28;20471;-65
2023/03/10 10:03:36;;;;;;;4.57;1.00;;;12.00;78.10;;;;;;5068406;28;21239;-68
2023/03/10 10:06:26;;;;;;;9.40;1.20;;;12.00;78.00;;;;;;5068603;28;20542;-66
2023/03/10 10:09:08;;;;;;;6.00;1.17;;;12.00;78.10;;;;;;5070701;28;20927;-67
2023/03/10 10:11:42;;;;;;;4.60;1.40;;;12.00;77.90;;;;;;5067710;28;20463;-67
2023/03/10 10:14:22;;;;;;;3.10;0.80;;;12.00;78.00;;;;;;5068928;28;20815;-65
2023/03/10 10:17:08;;;;;;;5.93;1.00;;;12.00;78.00;;;;;;5068376;28;20459;-67
2023/03/10 10:19:45;;;;;;;8.03;1.27;;;12.10;78.10;;;;;;5069479;28;20475;-67
2023/03/10 10:22:26;;;;;;;4.10;1.20;;;12.10;78.10;;;;;;5068602;28;20453;-66
2023/03/10 10:25:09;;;;;;;12.17;1.40;;;12.20;78.00;;;;;;5069301;28;20513;-67
2023/03/10 10:27:41;;;;;;;5.17;1.07;;;12.20;77.90;;;;;;5068439;28;20446;-67
2023/03/10 10:30:37;;;;;;;4.07;1.10;;;12.20;77.70;;;;;;5066899;28;21151;-68
2023/03/10 10:33:08;;;;;;;6.33;1.33;;;12.30;77.90;;;;;;5085466;28;20464;-66
2023/03/10 10:35:47;;;;;;;4.10;1.30;;;12.30;78.30;;;;;;5080874;28;20466;-66
2023/03/10 10:38:31;;;;;;;4.60;1.00;;;12.50;78.20;;;;;;5084513;28;20565;-65
2023/03/10 10:41:07;;;;;;;4.87;1.20;;;12.60;78.10;;;;;;5081284;28;20462;-66
2023/03/10 10:43:45;;;;;;;5.53;1.10;;;12.70;77.90;;;;;;5085267;28;20462;-65
2023/03/10 10:46:29;;;;;;;7.80;1.60;;;12.80;77.70;;;;;;5084290;28;20482;-66
2023/03/10 10:49:19;;;;;;;4.40;1.30;;;12.90;77.30;;;;;;5082798;28;20496;-66
2023/03/10 10:51:58;;;;;;;6.10;1.20;;;12.90;77.20;;;;;;5086397;28;20797;-66
2023/03/10 10:54:32;;;;;;;6.03;1.40;;;13.00;77.10;;;;;;5083784;28;20474;-66
2023/03/10 10:57:06;;;;;;;5.13;1.40;;;13.00;76.80;;;;;;5083143;28;20957;-67
2023/03/10 10:59:37;;;;;;;5.23;1.63;;;13.00;77.10;;;;;;5081413;28;20496;-66
2023/03/10 11:02:23;;;;;;;6.57;1.20;;;13.10;77.20;;;;;;5085029;28;20542;-67
2023/03/10 11:04:55;;;;;;;11.20;1.60;;;13.20;77.00;;;;;;5087488;28;20464;-65
2023/03/10 11:07:33;;;;;;;6.20;1.70;;;13.30;76.70;;;;;;5088695;28;20513;-66
2023/03/10 11:10:17;;;;;;;6.27;1.53;;;13.40;76.60;;;;;;5089567;28;20940;-66
2023/03/10 11:13:21;;;;;;;4.67;1.43;;;13.40;76.60;;;;;;5086799;28;20854;-66
2023/03/10 11:16:00;;;;;;;6.33;1.50;;;13.50;76.20;;;;;;5086582;28;20465;-66
2023/03/10 11:19:07;;;;;;;6.30;1.50;;;13.50;76.40;;;;;;5089624;28;20476;-65
2023/03/10 11:21:51;;;;;;;4.37;1.27;;;13.50;76.40;;;;;;5087738;28;20453;-66
2023/03/10 11:24:31;;;;;;;5.57;1.20;;;13.50;76.10;;;;;;5088933;28;20554;-65
2023/03/10 11:27:20;;;;;;;5.37;1.27;;;13.60;75.90;;;;;;5087852;28;20484;-65
2023/03/10 11:30:03;;;;;;;6.00;1.20;;;13.60;75.60;;;;;;5089926;28;20463;-66
2023/03/10 11:32:41;;;;;;;6.70;1.40;;;13.50;75.40;;;;;;5087509;28;20482;-65
2023/03/10 11:35:25;;;;;;;3.70;1.23;;;13.40;75.40;;;;;;5089048;28;21620;-65
2023/03/10 11:38:14;;;;;;;5.20;1.30;;;13.40;75.40;;;;;;5073556;28;20537;-66
2023/03/10 11:40:50;;;;;;;3.97;0.83;;;13.20;75.50;;;;;;5086523;28;20539;-65
2023/03/10 11:43:33;;;;;;;6.73;1.50;;;13.10;75.90;;;;;;5088335;28;20802;-65
2023/03/10 11:46:13;;;;;;;4.80;1.33;;;13.10;76.10;;;;;;5086276;28;20900;-65
2023/03/10 11:48:59;;;;;;;6.50;1.47;;;13.10;76.10;;;;;;5071749;28;20475;-67
2023/03/10 11:51:37;;;;;;;5.53;1.27;;;13.10;76.20;;;;;;5088274;28;20466;-65
2023/03/10 11:54:23;;;;;;;4.77;1.30;;;13.00;76.30;;;;;;5087483;28;20460;-65
2023/03/10 11:57:02;;;;;;;3.97;1.20;;;13.00;76.30;;;;;;5085124;28;20460;-65
2023/03/10 11:59:46;;;;;;;3.73;1.00;;;13.00;76.20;;;;;;5087637;28;20924;-65
2023/03/10 12:02:24;;;;;;;6.23;1.60;;;12.90;76.40;;;;;;5087229;28;20969;-66
2023/03/10 12:05:05;;;;;;;5.07;1.33;;;12.90;76.70;;;;;;5086604;28;21013;-66
2023/03/10 12:07:45;;;;;;;6.43;1.23;;;12.90;77.00;;;;;;5087146;28;20479;-65
2023/03/10 12:10:25;;;;;;;5.30;1.40;;;12.90;76.80;;;;;;5090643;28;20532;-65
2023/03/10 12:12:57;;;;;;;6.40;1.43;;;12.90;77.00;;;;;;5087681;28;20457;-66
2023/03/10 12:15:35;;;;;;;3.83;1.10;;;12.90;77.00;;;;;;5086386;28;20781;-65
2023/03/10 12:18:10;;;;;;;4.80;1.13;;;13.00;76.90;;;;;;5093197;28;20461;-67
2023/03/10 12:20:44;;;;;;;5.93;1.60;;;13.00;76.80;;;;;;5091209;28;20475;-65
2023/03/10 12:23:40;;;;;;;4.33;1.00;;;13.00;76.70;;;;;;5092627;28;20469;-67
2023/03/10 12:26:13;;;;;;;4.80;1.10;;;13.00;76.70;;;;;;5093509;28;20501;-65
2023/03/10 12:28:44;;;;;;;5.60;1.23;;;12.90;77.00;;;;;;5089404;28;20916;-65
2023/03/10 12:31:55;;;;;;;4.30;1.27;;;12.90;76.90;;;;;;5088792;28;20865;-67
2023/03/10 12:34:30;;;;;;;5.20;1.00;;;13.00;76.80;;;;;;5088913;28;20449;-66
2023/03/10 12:37:13;;;;;;;4.97;1.00;;;12.90;77.10;;;;;;5089417;28;20812;-67
2023/03/10 12:39:46;;;;;;;3.20;0.90;;;12.90;77.20;;;;;;5089577;28;20444;-66
2023/03/10 12:42:34;;;;;;;3.20;0.80;;;13.00;77.20;;;;;;5089730;28;20517;-66
2023/03/10 12:45:24;;;;;;;4.47;0.80;;;13.00;76.90;;;;;;5089717;28;20448;-66
2023/03/10 12:48:09;;;;;;;3.00;0.70;;;13.00;76.70;;;;;;5091292;28;20538;-66
2023/03/10 12:50:51;;;;;;;3.37;0.90;;;13.00;76.70;;;;;;5089591;28;20489;-67
2023/03/10 12:53:32;;;;;;;3.37;0.60;;;12.90;76.80;;;;;;5070457;28;20511;-66
2023/03/10 12:56:36;;;;;;;3.90;0.70;;;12.80;76.80;;;;;;5079606;28;20801;-66
2023/03/10 12:59:20;;;;;;;4.50;0.90;;;12.90;76.60;;;;;;5088059;28;20839;-67
2023/03/10 13:01:59;;;;;;;3.30;0.80;;;12.80;76.70;;;;;;5089897;28;21006;-66
2023/03/10 13:04:39;;;;;;;3.03;0.70;;;12.80;76.80;;;;;;5089212;28;20551;-66
2023/03/10 13:07:17;;;;;;;3.43;0.70;;;12.80;76.80;;;;;;5089085;28;20478;-67
2023/03/10 13:09:52;;;;;;;3.10;0.70;;;12.80;76.80;;;;;;5092348;28;20456;-66
2023/03/10 13:12:36;;;;;;;3.10;0.70;;;12.70;76.80;;;;;;5090401;28;20524;-67
2023/03/10 13:15:23;;;;;;;3.57;0.80;;;12.70;76.60;;;;;;5089285;28;20488;-66
2023/03/10 13:18:14;;;;;;;3.67;0.60;;;12.70;76.70;;;;;;5091465;28;20453;-66
2023/03/10 13:21:00;;;;;;;5.90;1.43;;;12.80;76.70;;;;;;5090816;28;20468;-65
2023/03/10 13:23:33;;;;;;;2.70;0.53;;;12.80;76.70;;;;;;5090745;28;20534;-65
2023/03/10 13:26:10;;;;;;;2.67;0.50;;;12.80;76.40;;;;;;5090927;28;20517;-66
2023/03/10 13:28:55;;;;;;;2.70;0.50;;;12.80;76.30;;;;;;5090355;28;20524;-65
2023/03/10 13:31:36;;;;;;;2.80;0.50;;;12.80;76.10;;;;;;5086108;28;20463;-65
2023/03/10 13:34:19;;;;;;;2.87;0.70;;;12.80;76.50;;;;;;5091019;28;20456;-66
2023/03/10 13:36:51;;;;;;;4.70;0.60;;;12.70;76.40;;;;;;5090758;28;20475;-65
2023/03/10 13:39:32;;;;;;;2.93;0.70;;;12.70;76.50;;;;;;5090424;28;20462;-65
2023/03/10 13:42:18;;;;;;;2.80;0.50;;;12.70;76.50;;;;;;5088630;28;20459;-65
2023/03/10 13:44:53;;;;;;;2.60;0.50;;;12.70;76.60;;;;;;5089787;28;20799;-65
2023/03/10 13:47:30;;;;;;;3.63;0.50;;;12.70;76.70;;;;;;5090039;28;20482;-65
2023/03/10 13:50:12;;;;;;;3.30;0.53;;;12.60;76.70;;;;;;5089360;28;20955;-65
2023/03/10 13:53:00;;;;;;;2.90;0.60;;;12.70;76.70;;;;;;5089557;28;20456;-65
2023/03/10 13:55:38;;;;;;;3.10;0.80;;;12.70;76.70;;;;;;5087444;28;20456;-65
2023/03/10 13:58:14;;;;;;;4.50;0.77;;;12.70;76.60;;;;;;5089966;28;20450;-65
2023/03/10 14:00:49;;;;;;;3.47;0.50;;;12.70;76.50;;;;;;5089252;28;20500;-65